Latest Weather Observations for Nowra

IDN60801

Issued at 12:22 pm EST Wednesday 17 July 2019 (issued every 10 minutes, with the page automatically refreshed every 10 minutes)

About weather observations | Map of weather stations | Latest weather observations for NSW | Other Formats
Station Details ID: 068072 Name: NOWRA RAN AIR STATION AWS Lat: -34.95 Lon: 150.54 Height: 109.0 m
Data from the previous 72 hours. | See also: Recent months at Nowra
Date/Time
EST
Temp
°C
App
Temp
°C
Dew
Point
°C
Rel
Hum
%
Delta-T
°C
Wind Press
QNH
hPa
Press
MSL
hPa
Rain since
9am
mm
Dir  Spd
km/h
Gust
km/h
Spd
kts
Gust
kts
17/12:00pm 15.7 8.2 3.5 44 5.6 WNW 32 46 17 25 1014.9 1014.9 0.0
17/11:30am 16.0 7.6 3.8 44 5.7 WNW 37 50 20 27 1015.4 1015.4 0.0
17/11:16am 15.6 8.1 3.4 44 5.6 WNW 32 50 17 27 1015.6 1015.6 0.0
17/11:00am 15.5 8.0 3.6 45 5.5 WNW 32 44 17 24 1015.9 1016.0 0.0
17/10:30am 15.2 9.3 4.0 47 5.2 WNW 24 39 13 21 1016.5 1016.6 0.0
17/10:00am 14.7 8.8 4.1 49 4.9 WNW 24 33 13 18 1016.9 1017.0 0.0
17/09:30am 13.8 7.2 4.1 52 4.5 WNW 28 37 15 20 1017.1 1017.2 0.0
17/09:00am 13.1 6.9 4.5 56 4.0 WNW 26 35 14 19 1017.0 1017.1 0.0
17/08:30am 12.1 6.3 4.3 59 3.5 NW 24 32 13 17 1017.1 1017.2 0.0
17/08:00am 11.1 5.7 4.3 63 3.1 WNW 22 30 12 16 1017.2 1017.3 0.0
17/07:30am 10.5 4.7 4.2 65 2.8 WNW 24 32 13 17 1017.4 1017.5 0.0
17/07:00am 10.0 3.8 4.2 67 2.6 WNW 26 35 14 19 1017.5 1017.6 0.0
17/06:30am 10.2 4.0 4.4 67 2.6 WNW 26 32 14 17 1017.4 1017.5 0.0
17/06:00am 9.8 4.8 4.6 70 2.3 WNW 20 26 11 14 1017.3 1017.4 0.0
17/05:30am 9.8 4.8 4.6 70 2.3 WNW 20 28 11 15 1017.4 1017.5 0.0
17/05:00am 10.0 5.0 4.8 70 2.3 WNW 20 28 11 15 1017.5 1017.6 0.0
17/04:30am 10.4 4.3 5.0 69 2.5 WNW 26 33 14 18 1017.7 1017.8 0.0
17/04:00am 10.6 5.0 5.4 70 2.4 WNW 24 32 13 17 1017.8 1017.9 0.0
17/03:30am 10.5 5.3 5.3 70 2.4 WNW 22 28 12 15 1017.9 1018.0 0.0
17/03:00am 10.5 5.3 5.5 71 2.3 WNW 22 30 12 16 1018.0 1018.1 0.0
17/02:30am 10.7 5.2 5.7 71 2.3 WNW 24 30 13 16 1018.1 1018.2 0.0
17/02:00am 10.3 4.8 5.7 73 2.1 WNW 24 28 13 15 1018.1 1018.2 0.0
17/01:30am 10.7 5.1 5.5 70 2.4 WNW 24 32 13 17 1018.4 1018.5 0.0
17/01:00am 11.1 5.1 5.4 68 2.6 WNW 26 35 14 19 1018.4 1018.5 0.0
17/12:30am 11.5 4.8 5.4 66 2.8 WNW 30 39 16 21 1018.4 1018.5 0.0
17/12:00am 11.6 5.6 5.3 65 2.9 WNW 26 35 14 19 1018.5 1018.6 0.0
 
Date/Time
EST
Temp
°C
App
Temp
°C
Dew
Point
°C
Rel
Hum
%
Delta-T
°C
Wind Press
QNH
hPa
Press
MSL
hPa
Rain since
9am
mm
Dir  Spd
km/h
Gust
km/h
Spd
kts
Gust
kts
16/11:30pm 11.4 6.4 4.8 64 3.0 W 20 28 11 15 1018.6 1018.7 0.0
16/11:00pm 11.8 6.1 4.8 62 3.2 W 24 30 13 16 1018.5 1018.6 0.0
16/10:30pm 11.6 6.5 4.3 61 3.3 W 20 26 11 14 1018.5 1018.6 0.0
16/10:00pm 12.0 6.5 4.2 59 3.5 W 22 32 12 17 1018.5 1018.6 0.0
16/09:30pm 12.3 6.9 4.3 58 3.6 W 22 33 12 18 1018.5 1018.6 0.0
16/09:00pm 12.4 5.8 4.4 58 3.6 W 28 35 15 19 1018.3 1018.4 0.0
16/08:30pm 12.4 6.5 4.1 57 3.8 W 24 35 13 19 1018.2 1018.3 0.0
16/08:00pm 12.5 6.3 4.2 57 3.8 W 26 35 14 19 1017.9 1018.0 0.0
16/07:30pm 12.8 6.2 4.0 55 4.0 W 28 39 15 21 1017.9 1018.0 0.0
16/07:00pm 13.0 6.4 4.2 55 4.0 W 28 41 15 22 1017.8 1017.9 0.0
16/06:30pm 13.4 6.0 4.0 53 4.3 W 32 43 17 23 1017.5 1017.6 0.0
16/06:00pm 13.4 6.8 4.0 53 4.3 W 28 43 15 23 1017.1 1017.2 0.0
16/05:30pm 13.8 7.1 3.9 51 4.5 W 28 41 15 22 1016.8 1016.9 0.0
16/05:00pm 14.3 7.2 3.7 49 4.8 WNW 30 41 16 22 1016.5 1016.6 0.0
16/04:30pm 15.3 9.4 3.8 46 5.3 WNW 24 37 13 20 1016.5 1016.6 0.0
16/04:00pm 16.0 7.9 3.4 43 5.8 WNW 35 50 19 27 1016.2 1016.3 0.0
16/03:49pm 16.4 9.0 3.8 43 5.9 W 32 50 17 27 1016.2 1016.3 0.0
16/03:30pm 16.8 9.2 3.8 42 6.1 W 33 46 18 25 1015.9 1016.0 0.0
16/03:00pm 17.1 10.0 3.4 40 6.4 WNW 30 43 16 23 1015.9 1016.0 0.0
16/02:30pm 17.2 9.5 3.5 40 6.4 WNW 33 50 18 27 1015.7 1015.7 0.0
16/02:29pm 17.2 9.6 3.1 39 6.5 WNW 32 50 17 27 1015.7 1015.7 0.0
16/02:00pm 18.0 9.9 3.1 37 6.9 W 35 52 19 28 1015.6 1015.6 0.0
16/01:30pm 18.1 11.8 3.6 38 6.8 WNW 26 39 14 21 1015.6 1015.6 0.0
16/01:00pm 18.0 11.3 3.9 39 6.7 WNW 28 39 15 21 1015.6 1015.6 0.0
16/12:30pm 17.7 11.4 3.9 40 6.5 WNW 26 37 14 20 1015.7 1015.7 0.0
16/12:00pm 17.1 9.7 3.8 41 6.2 WNW 32 44 17 24 1016.1 1016.2 0.0
16/11:30am 16.9 9.6 4.3 43 6.0 WNW 32 44 17 24 1016.6 1016.7 0.0
16/11:16am 16.4 9.7 3.8 43 5.9 WNW 28 48 15 26 1017.0 1017.1 0.0
16/11:00am 16.4 9.5 4.4 45 5.6 WNW 30 43 16 23 1017.3 1017.4 0.0
16/10:30am 15.9 8.4 4.3 46 5.4 W 33 43 18 23 1017.7 1017.8 0.0
16/10:00am 15.0 7.1 4.4 49 4.9 W 35 46 19 25 1017.7 1017.8 0.0
16/09:30am 14.2 6.8 4.2 51 4.6 WNW 32 39 17 21 1017.8 1017.9 0.0
16/09:00am 13.4 6.4 4.3 54 4.2 WNW 30 39 16 21 1017.7 1017.8 0.0
16/08:30am 12.3 5.7 4.3 58 3.6 NW 28 39 15 21 1017.4 1017.5 0.0
16/08:00am 11.6 5.4 4.3 61 3.3 NW 26 39 14 21 1017.2 1017.3 0.0
16/07:30am 10.8 3.4 4.0 63 3.0 WNW 32 41 17 22 1017.0 1017.1 0.0
16/07:00am 10.7 4.1 4.2 64 2.9 WNW 28 43 15 23 1017.0 1017.1 0.0
16/06:30am 10.6 3.9 3.9 63 3.0 WNW 28 41 15 22 1016.7 1016.8 0.0
16/06:00am 10.6 3.6 3.9 63 3.0 WNW 30 43 16 23 1016.4 1016.5 0.0
16/05:30am 10.5 3.1 3.8 63 3.0 WNW 32 44 17 24 1016.0 1016.1 0.0
16/05:00am 10.4 3.0 3.9 64 2.9 WNW 32 43 17 23 1015.8 1015.8 0.0
16/04:30am 10.3 2.3 4.0 65 2.8 NW 35 44 19 24 1015.7 1015.7 0.0
16/04:00am 10.0 3.7 3.7 65 2.8 NW 26 35 14 19 1015.8 1015.8 0.0
16/03:30am 10.0 3.7 3.7 65 2.8 NW 26 35 14 19 1015.9 1016.0 0.0
16/03:00am 10.2 3.9 3.7 64 2.9 NW 26 33 14 18 1015.9 1016.0 0.0
16/02:30am 10.2 3.5 3.5 63 2.9 NW 28 41 15 22 1015.9 1016.0 0.0
16/02:00am 10.5 3.0 3.5 62 3.1 WNW 32 41 17 22 1015.9 1016.0 0.0
16/01:30am 10.7 4.4 3.5 61 3.2 NW 26 37 14 20 1016.4 1016.5 0.0
16/01:00am 10.6 3.9 3.4 61 3.2 NW 28 39 15 21 1016.7 1016.8 0.0
16/12:30am 10.7 3.6 3.3 60 3.2 NW 30 39 16 21 1017.0 1017.1 0.0
16/12:00am 10.9 3.2 3.5 60 3.3 WNW 33 46 18 25 1016.9 1017.0 0.0
 
Date/Time
EST
Temp
°C
App
Temp
°C
Dew
Point
°C
Rel
Hum
%
Delta-T
°C
Wind Press
QNH
hPa
Press
MSL
hPa
Rain since
9am
mm
Dir  Spd
km/h
Gust
km/h
Spd
kts
Gust
kts
15/11:30pm 10.6 3.1 3.2 60 3.2 WNW 32 39 17 21 1016.9 1017.0 0.0
15/11:00pm 10.8 3.3 3.4 60 3.3 WNW 32 41 17 22 1016.9 1017.0 0.0
15/10:42pm 10.9 3.4 3.2 59 3.4 WNW 32 50 17 27 1017.1 1017.2 0.0
15/10:30pm 11.1 3.0 3.2 58 3.5 WNW 35 48 19 26 1017.1 1017.2 0.0
15/10:00pm 11.0 3.8 3.1 58 3.5 WNW 30 48 16 26 1017.1 1017.2 0.0
15/09:58pm 11.1 3.9 3.2 58 3.5 WNW 30 48 16 26 1017.1 1017.2 0.0
15/09:30pm 11.3 3.7 3.1 57 3.6 WNW 32 43 17 23 1017.2 1017.3 0.0
15/09:00pm 11.4 4.6 2.9 56 3.7 WNW 28 37 15 20 1017.3 1017.4 0.0
15/08:30pm 11.7 3.9 2.7 54 3.9 W 33 44 18 24 1017.6 1017.7 0.0
15/08:00pm 11.7 4.1 2.7 54 3.9 W 32 44 17 24 1017.7 1017.8 0.0
15/07:30pm 11.6 4.7 2.6 54 3.9 W 28 37 15 20 1017.7 1017.8 0.0
15/07:00pm 11.8 5.3 2.8 54 3.9 WNW 26 39 14 21 1017.6 1017.7 0.0
15/06:30pm 12.2 5.0 2.9 53 4.1 WNW 30 39 16 21 1017.5 1017.6 0.0
15/06:00pm 12.5 5.6 2.7 51 4.3 WNW 28 35 15 19 1017.4 1017.5 0.0
15/05:30pm 12.9 6.0 2.7 50 4.5 W 28 39 15 21 1017.2 1017.3 0.0
15/05:00pm 13.4 6.9 2.6 48 4.8 WNW 26 37 14 20 1016.9 1017.0 0.0
15/04:30pm 14.3 8.9 2.5 45 5.3 WNW 20 28 11 15 1016.2 1016.3 0.0
15/04:00pm 15.2 8.9 1.7 40 5.9 W 24 33 13 18 1015.9 1016.0 0.0
15/03:30pm 16.2 10.8 1.5 37 6.5 WNW 19 26 10 14 1015.7 1015.7 0.0
15/03:00pm 16.5 10.0 0.6 34 6.9 WNW 24 33 13 18 1015.4 1015.4 0.0
15/02:30pm 16.8 10.0 0.9 34 7.0 W 26 35 14 19 1015.4 1015.4 0.0
15/02:00pm 17.0 11.2 0.2 32 7.3 W 20 30 11 16 1015.1 1015.1 0.0
15/01:30pm 17.0 10.2 -2.1 27 7.9 W 24 35 13 19 1015.2 1015.2 0.0
15/01:00pm 16.2 9.1 -0.9 31 7.2 WSW 26 35 14 19 1015.3 1015.3 0.0
15/12:30pm 16.0 9.0 -0.2 33 6.9 W 26 37 14 20 1015.8 1015.8 0.0
15/12:00pm 16.0 9.9 0.2 34 6.8 WSW 22 32 12 17 1016.2 1016.3 0.0
15/11:31am 15.0 7.7 -0.3 35 6.5 W 28 46 15 25 1016.5 1016.6 0.0
15/11:30am 14.8 7.7 -0.9 34 6.5 W 26 43 14 23 1016.5 1016.6 0.0
15/11:00am 14.6 7.3 -0.3 36 6.2 WSW 28 39 15 21 1016.7 1016.8 0.0
15/10:30am 14.2 7.3 0.1 38 6.0 SW 26 39 14 21 1016.7 1016.8 0.0
15/10:00am 13.9 7.5 1.2 42 5.5 SW 24 39 13 21 1016.6 1016.7 0.0
15/09:30am 13.3 6.9 1.0 43 5.3 WSW 24 39 13 21 1016.1 1016.2 0.0
15/09:00am 12.4 6.3 2.6 51 4.3 WSW 24 33 13 18 1015.6 1015.6 0.0
15/08:30am 11.7 5.7 3.5 57 3.6 WSW 24 33 13 18 1015.1 1015.1 0.0
15/08:00am 10.7 6.2 4.0 63 3.0 WSW 17 22 9 12 1014.6 1014.6 0.0
15/07:30am 10.1 4.6 3.8 65 2.8 W 22 30 12 16 1014.0 1014.0 0.0
15/07:00am 9.8 3.5 3.5 65 2.8 W 26 35 14 19 1013.4 1013.4 0.0
15/06:30am 10.8 3.6 3.1 59 3.4 WSW 30 39 16 21 1012.8 1012.8 0.0
15/06:14am 11.0 3.8 3.1 58 3.5 WSW 30 48 16 26 1012.6 1012.7 0.0
15/06:00am 11.1 4.6 2.9 57 3.6 W 26 35 14 19 1012.0 1012.1 0.0
15/05:30am 11.7 5.3 3.0 55 3.8 W 26 35 14 19 1011.3 1011.4 0.0
15/05:05am 11.2 4.3 2.8 56 3.7 W 28 46 15 25 1010.3 1010.4 0.0
15/05:00am 11.2 4.0 3.0 57 3.6 W 30 44 16 24 1010.1 1010.2 0.0
15/04:30am 11.4 3.2 2.9 56 3.7 W 35 59 19 32 1009.3 1009.4 0.0
15/04:02am 11.7 2.4 3.0 55 3.8 W 41 59 22 32 1008.8 1008.9 0.0
15/04:00am 11.5 1.6 2.8 55 3.8 W 44 61 24 33 1008.9 1009.0 0.0
15/03:30am 11.7 2.8 3.2 56 3.8 WNW 39 57 21 31 1008.7 1008.8 0.0
15/03:12am 11.4 3.7 3.4 58 3.5 WNW 33 52 18 28 1008.8 1008.9 0.0
15/03:00am 11.8 4.1 3.3 56 3.8 WNW 33 50 18 27 1008.7 1008.8 0.0
15/02:30am 11.9 2.7 3.7 57 3.7 W 41 67 22 36 1008.4 1008.5 0.0
15/02:00am 11.9 3.5 3.7 57 3.7 W 37 65 20 35 1009.1 1009.2 0.0
15/01:30am 12.1 2.3 3.6 56 3.8 W 44 69 24 37 1008.9 1009.0 0.0
15/01:03am 12.1 2.0 3.6 56 3.8 W 46 69 25 37 1008.4 1008.5 0.0
15/01:00am 12.0 2.3 3.8 57 3.7 WNW 44 61 24 33 1008.4 1008.5 0.0
15/12:30am 12.2 1.4 3.9 57 3.7 WNW 50 74 27 40 1008.7 1008.8 0.0
15/12:00am 12.1 2.1 4.1 58 3.6 WNW 46 65 25 35 1009.3 1009.4 0.0
 
Date/Time
EST
Temp
°C
App
Temp
°C
Dew
Point
°C
Rel
Hum
%
Delta-T
°C
Wind Press
QNH
hPa
Press
MSL
hPa
Rain since
9am
mm
Dir  Spd
km/h
Gust
km/h
Spd
kts
Gust
kts
14/11:31pm 11.9 4.0 4.4 60 3.4 WNW 35 57 19 31 1009.9 1010.0 0.0
14/11:30pm 11.8 3.9 4.5 61 3.3 WNW 35 44 19 24 1009.9 1010.0 0.0
14/11:00pm 11.7 4.2 4.4 61 3.3 WNW 33 46 18 25 1010.5 1010.6 0.0
14/10:31pm 11.5 4.9 4.0 60 3.4 WNW 28 46 15 25 1011.1 1011.2 0.0
14/10:30pm 11.5 5.3 4.3 61 3.3 WNW 26 46 14 25 1011.2 1011.3 0.0
14/10:00pm 11.3 3.7 4.1 61 3.2 WNW 33 52 18 28 1011.4 1011.5 0.0
14/09:30pm 11.2 1.7 3.7 60 3.3 WNW 43 63 23 34 1011.3 1011.4 0.0
14/09:00pm 11.3 2.1 3.6 59 3.4 WNW 41 59 22 32 1011.7 1011.8 0.0
14/08:30pm 11.2 2.7 3.3 58 3.5 W 37 56 20 30 1012.5 1012.6 0.0
14/08:00pm 10.8 2.3 3.1 59 3.4 W 37 69 20 37 1012.9 1012.9 0.0
14/07:30pm 10.8 0.9 2.6 57 3.5 W 44 63 24 34 1012.8 1012.8 0.0
14/07:08pm 10.8 1.1 2.6 57 3.5 WNW 43 74 23 40 1012.8 1012.8 0.0
14/07:05pm 10.7 2.1 2.5 57 3.5 WNW 37 56 20 30 1012.8 1012.8 0.0
14/07:00pm 10.5 1.9 2.6 58 3.4 WNW 37 52 20 28 1012.6 1012.7 0.0
14/06:30pm 10.6 1.5 1.9 55 3.7 WNW 39 70 21 38 1011.9 1012.0 0.0
14/06:00pm 10.5 0.6 1.9 55 3.7 WNW 43 61 23 33 1011.8 1011.9 0.0
14/05:30pm 10.3 -0.2 1.7 55 3.6 WNW 46 67 25 36 1012.1 1012.2 0.0
14/05:00pm 10.1 1.7 1.5 55 3.6 WNW 35 61 19 33 1012.6 1012.7 0.0
14/04:39pm 10.1 1.6 1.2 54 3.7 W 35 54 19 29 1013.1 1013.1 0.0
14/04:30pm 10.3 1.4 0.9 52 3.9 WNW 37 54 20 29 1013.2 1013.2 0.0
14/04:00pm 10.4 0.1 0.4 50 4.1 WNW 44 69 24 37 1013.9 1013.9 0.0
14/03:30pm 11.0 1.0 0.7 49 4.3 WNW 43 67 23 36 1013.3 1013.3 0.0
14/03:00pm 11.7 1.1 0.8 47 4.6 WNW 46 74 25 40 1012.9 1012.9 0.0
14/02:30pm 11.7 1.4 0.5 46 4.7 NW 44 72 24 39 1013.7 1013.7 0.0
14/02:23pm 11.6 1.5 0.1 45 4.7 WNW 43 72 23 39 1013.8 1013.8 0.0
14/02:00pm 11.5 -1.1 0.3 46 4.6 WNW 56 76 30 41 1014.2 1014.2 0.0
14/01:59pm 11.7 -0.5 0.5 46 4.7 WNW 54 76 29 41 1014.1 1014.1 0.0
14/01:57pm 11.3 -0.9 0.4 47 4.5 WNW 54 76 29 41 1014.1 1014.1 0.0
14/01:30pm 11.5 1.8 0.6 47 4.5 WNW 41 69 22 37 1014.8 1014.8 0.0
14/01:00pm 11.5 -0.7 0.3 46 4.6 WNW 54 80 29 43 1015.7 1015.7 0.0
14/12:53pm 11.6 -0.2 0.1 45 4.7 WNW 52 80 28 43 1015.6 1015.6 0.0
14/12:30pm 11.9 2.5 0.1 44 4.9 WNW 39 61 21 33 1016.3 1016.4 0.0

Other formats

Comma delimited format used in spreadsheet applications
http://www.bom.gov.au/fwo/IDN60801/IDN60801.94750.axf

JavaScript Object Notation format (JSON) in row-major order
http://www.bom.gov.au/fwo/IDN60801/IDN60801.94750.json

Data quality

Most of these data are generated automatically and are frequently updated. Quality checks on data are not normally performed. It is possible for incorrect values to appear. Refer to information at About Latest Weather Observations and please check the disclaimer before using these data.